createdAt,value
2022-08-26T00:00:55.778Z,23.35
2022-08-26T00:03:24.726Z,23.30
2022-08-26T00:05:52.891Z,23.24
2022-08-26T00:08:22.370Z,23.21
2022-08-26T00:10:50.363Z,23.20
2022-08-26T00:13:20.244Z,23.23
2022-08-26T00:15:51.292Z,23.20
2022-08-26T00:18:22.298Z,23.18
2022-08-26T00:20:51.146Z,23.14
2022-08-26T00:23:19.119Z,23.09
2022-08-26T00:25:48.242Z,23.06
2022-08-26T00:28:16.290Z,23.13
2022-08-26T00:30:49.237Z,23.10
2022-08-26T00:33:20.983Z,23.08
2022-08-26T00:35:49.275Z,23.04
2022-08-26T00:38:22.872Z,22.97
2022-08-26T00:40:57.465Z,22.95
2022-08-26T00:43:26.688Z,22.96
2022-08-26T00:46:02.422Z,22.95
2022-08-26T00:48:33.351Z,22.98
2022-08-26T00:51:05.810Z,23.02
2022-08-26T00:53:41.512Z,23.06
2022-08-26T00:56:21.637Z,23.08
2022-08-26T00:58:51.725Z,23.07
2022-08-26T01:01:22.933Z,23.04
2022-08-26T01:03:51.870Z,22.96
2022-08-26T01:06:20.778Z,22.96
2022-08-26T01:08:49.246Z,22.96
2022-08-26T01:11:20.600Z,22.92
2022-08-26T01:13:54.644Z,22.88
2022-08-26T01:16:25.846Z,22.87
2022-08-26T01:19:02.067Z,22.90
2022-08-26T01:21:40.553Z,22.94
2022-08-26T01:24:11.937Z,22.94
2022-08-26T01:26:45.382Z,22.89
2022-08-26T01:29:19.097Z,22.83
2022-08-26T01:31:57.159Z,22.80
2022-08-26T01:34:28.877Z,22.78
2022-08-26T01:37:03.954Z,22.72
2022-08-26T01:39:37.940Z,22.64
2022-08-26T01:42:10.230Z,22.58
2022-08-26T01:44:45.019Z,22.57
2022-08-26T01:47:14.604Z,22.55
2022-08-26T01:49:47.543Z,22.52
2022-08-26T01:52:24.393Z,22.45
2022-08-26T01:55:00.009Z,22.46
2022-08-26T01:57:29.517Z,22.43
2022-08-26T02:00:00.881Z,22.41
2022-08-26T02:02:29.943Z,22.36
2022-08-26T02:05:00.931Z,22.29
2022-08-26T02:07:29.749Z,22.25
2022-08-26T02:09:59.148Z,22.21
2022-08-26T02:12:28.671Z,22.18
2022-08-26T02:15:01.301Z,22.15
2022-08-26T02:17:34.716Z,22.17
2022-08-26T02:20:04.492Z,22.18
2022-08-26T02:22:36.553Z,22.17
2022-08-26T02:25:13.115Z,22.12
2022-08-26T02:27:41.738Z,22.13
2022-08-26T02:30:17.232Z,22.04
2022-08-26T02:32:46.317Z,22.05
2022-08-26T02:35:20.501Z,22.03
2022-08-26T02:37:49.981Z,22.07
2022-08-26T02:40:24.639Z,22.07
2022-08-26T02:42:56.058Z,22.09
2022-08-26T02:45:28.963Z,22.15
2022-08-26T02:47:58.137Z,22.13
2022-08-26T02:50:29.846Z,22.14
2022-08-26T02:53:00.352Z,22.11
2022-08-26T02:55:29.991Z,22.10
2022-08-26T02:57:58.259Z,22.13
2022-08-26T03:00:27.166Z,22.13
2022-08-26T03:02:55.555Z,22.16
2022-08-26T03:05:24.935Z,22.17
2022-08-26T03:07:53.562Z,22.18
2022-08-26T03:10:22.063Z,22.18
2022-08-26T03:12:53.940Z,22.18
2022-08-26T03:15:22.405Z,22.17
2022-08-26T03:17:52.899Z,22.17
2022-08-26T03:20:21.110Z,22.20
2022-08-26T03:22:51.357Z,22.18
2022-08-26T03:25:22.404Z,22.24
2022-08-26T03:27:53.681Z,22.25
2022-08-26T03:30:45.503Z,22.31
2022-08-26T03:33:15.755Z,22.34
2022-08-26T03:35:47.202Z,22.36
2022-08-26T03:38:16.168Z,22.35
2022-08-26T03:40:44.719Z,22.31
2022-08-26T03:43:17.717Z,22.26
2022-08-26T03:45:46.480Z,22.25
2022-08-26T03:48:15.493Z,22.19
2022-08-26T03:50:44.230Z,22.16
2022-08-26T03:53:12.869Z,22.10
2022-08-26T03:55:43.417Z,22.05
2022-08-26T03:58:11.384Z,22.10
2022-08-26T04:00:40.755Z,22.18
2022-08-26T04:03:12.153Z,22.23
2022-08-26T04:05:43.839Z,22.13
2022-08-26T04:08:12.749Z,22.01
2022-08-26T04:10:40.955Z,21.98
2022-08-26T04:13:08.996Z,21.93
2022-08-26T04:15:39.250Z,21.97
2022-08-26T04:18:08.562Z,21.95
2022-08-26T04:20:36.978Z,21.93
2022-08-26T04:23:04.907Z,21.88
2022-08-26T04:25:36.167Z,21.87
2022-08-26T04:28:04.644Z,21.84
2022-08-26T04:30:32.894Z,21.79
2022-08-26T04:33:01.632Z,21.74
2022-08-26T04:35:31.048Z,21.72
2022-08-26T04:37:59.078Z,21.68
2022-08-26T04:40:27.689Z,21.70
2022-08-26T04:42:56.423Z,21.72
2022-08-26T04:45:25.258Z,21.80
2022-08-26T04:47:56.192Z,21.85
2022-08-26T04:50:26.563Z,21.87
2022-08-26T04:52:56.557Z,21.94
2022-08-26T04:55:38.480Z,21.97
2022-08-26T04:58:10.347Z,22.06
2022-08-26T05:00:39.418Z,22.16
2022-08-26T05:03:10.599Z,22.25
2022-08-26T05:05:41.112Z,22.33
2022-08-26T05:08:11.753Z,22.40
2022-08-26T05:10:41.848Z,22.42
2022-08-26T05:13:10.989Z,22.47
2022-08-26T05:15:41.802Z,22.54
2022-08-26T05:18:10.589Z,22.62
2022-08-26T05:20:41.733Z,22.69
2022-08-26T05:23:11.344Z,22.74
2022-08-26T05:25:41.820Z,22.81
2022-08-26T05:28:10.576Z,22.86
2022-08-26T05:30:40.331Z,22.89
2022-08-26T05:33:09.089Z,22.91
2022-08-26T05:35:39.023Z,22.94
2022-08-26T05:38:12.680Z,22.98
2022-08-26T05:40:44.545Z,22.98
2022-08-26T05:43:15.926Z,22.97
2022-08-26T05:45:46.822Z,22.96
2022-08-26T05:48:16.357Z,22.95
2022-08-26T05:50:46.685Z,22.95
2022-08-26T05:53:17.604Z,22.97
2022-08-26T05:55:48.779Z,22.97
2022-08-26T05:58:20.106Z,22.96
2022-08-26T06:00:57.276Z,23.01
2022-08-26T06:03:25.361Z,23.05
2022-08-26T06:05:53.662Z,23.10
2022-08-26T06:08:22.210Z,23.17
2022-08-26T06:10:54.826Z,23.24
2022-08-26T06:13:25.511Z,23.34
2022-08-26T06:15:59.197Z,23.33
2022-08-26T06:18:32.639Z,23.30
2022-08-26T06:21:01.547Z,23.36
2022-08-26T06:23:48.469Z,23.37
2022-08-26T06:26:18.091Z,23.36
2022-08-26T06:28:46.451Z,23.38
2022-08-26T06:31:15.568Z,23.45
2022-08-26T06:33:43.851Z,23.50
2022-08-26T06:36:18.599Z,23.55
2022-08-26T06:38:49.855Z,23.58
2022-08-26T06:41:21.479Z,23.63
2022-08-26T06:43:49.872Z,23.67
2022-08-26T06:46:20.678Z,23.72
2022-08-26T06:48:49.931Z,23.75
2022-08-26T06:51:20.594Z,23.82
2022-08-26T06:53:54.269Z,23.90
2022-08-26T06:56:25.545Z,23.97
2022-08-26T06:58:54.495Z,24.02
2022-08-26T07:01:26.277Z,24.06
2022-08-26T07:03:57.085Z,24.11
2022-08-26T07:06:26.326Z,24.17
2022-08-26T07:08:56.637Z,24.24
2022-08-26T07:11:26.042Z,24.32
2022-08-26T07:13:55.948Z,24.42
2022-08-26T07:16:23.939Z,24.49
2022-08-26T07:18:54.893Z,24.60
2022-08-26T07:21:24.528Z,24.80
2022-08-26T07:24:00.163Z,24.82
2022-08-26T07:26:31.944Z,24.88
2022-08-26T07:29:01.192Z,25.14
2022-08-26T07:31:35.997Z,25.06
2022-08-26T07:34:09.291Z,25.06
2022-08-26T07:36:37.715Z,25.09
2022-08-26T07:39:06.231Z,25.13
2022-08-26T07:41:36.529Z,25.20
2022-08-26T07:44:04.832Z,25.20
2022-08-26T07:46:36.023Z,25.27
2022-08-26T07:49:07.030Z,25.37
2022-08-26T07:51:35.602Z,25.44
2022-08-26T07:54:07.505Z,25.55
2022-08-26T07:56:36.986Z,25.59
2022-08-26T07:59:14.063Z,25.68
2022-08-26T08:01:44.726Z,25.76
2022-08-26T08:04:14.389Z,25.86
2022-08-26T08:06:43.943Z,25.97
2022-08-26T08:09:16.114Z,26.09
2022-08-26T08:11:45.805Z,26.18
2022-08-26T08:14:20.481Z,26.27
2022-08-26T08:16:51.172Z,26.38
2022-08-26T08:19:23.793Z,26.49
2022-08-26T08:21:52.309Z,26.61
2022-08-26T08:24:20.443Z,26.75
2022-08-26T08:26:52.201Z,26.80
2022-08-26T08:29:24.048Z,26.86
2022-08-26T08:31:56.819Z,26.94
2022-08-26T08:34:27.990Z,27.06
2022-08-26T08:36:57.100Z,27.18
2022-08-26T08:39:26.218Z,27.34
2022-08-26T08:42:16.043Z,27.51
2022-08-26T08:44:51.903Z,27.63
2022-08-26T08:47:30.632Z,27.74
2022-08-26T08:50:04.199Z,27.83
2022-08-26T08:52:35.308Z,27.91
2022-08-26T08:55:11.091Z,28.05
2022-08-26T08:58:03.700Z,28.13
2022-08-26T09:00:40.126Z,28.23
2022-08-26T09:03:20.147Z,28.26
2022-08-26T09:05:51.471Z,28.35
2022-08-26T09:08:24.237Z,28.39
2022-08-26T09:10:55.535Z,28.40
2022-08-26T09:13:27.212Z,28.47
2022-08-26T09:16:04.280Z,28.57
2022-08-26T09:18:52.067Z,28.63
2022-08-26T09:21:23.564Z,28.67
2022-08-26T09:23:55.795Z,28.75
2022-08-26T09:26:30.781Z,28.81
2022-08-26T09:29:03.013Z,28.89
2022-08-26T09:31:34.110Z,28.96
2022-08-26T09:34:17.551Z,29.02
2022-08-26T09:36:48.494Z,29.15
2022-08-26T09:39:37.965Z,29.16
2022-08-26T09:42:10.200Z,29.17
2022-08-26T09:44:56.402Z,29.25
2022-08-26T09:47:31.607Z,29.36
2022-08-26T09:50:09.440Z,29.45
2022-08-26T09:52:38.203Z,29.43
2022-08-26T09:55:13.981Z,29.54
2022-08-26T09:57:51.401Z,29.54
2022-08-26T10:00:33.831Z,29.63
2022-08-26T10:03:03.850Z,29.56
2022-08-26T10:05:39.733Z,29.60
2022-08-26T10:08:23.508Z,29.53
2022-08-26T10:10:53.067Z,29.65
2022-08-26T10:13:26.911Z,29.66
2022-08-26T10:16:07.145Z,29.69
2022-08-26T10:18:43.029Z,29.79
2022-08-26T10:21:17.975Z,29.94
2022-08-26T10:23:50.604Z,29.94
2022-08-26T10:26:26.410Z,29.93
2022-08-26T10:29:01.437Z,30.04
2022-08-26T10:31:40.649Z,30.10
2022-08-26T10:34:09.882Z,30.16
2022-08-26T10:37:14.488Z,30.20
2022-08-26T10:39:56.989Z,30.23
2022-08-26T10:42:31.228Z,30.39
2022-08-26T10:45:05.877Z,30.45
2022-08-26T10:47:51.792Z,30.54
2022-08-26T10:50:21.317Z,30.65
2022-08-26T10:53:01.136Z,30.64
2022-08-26T10:55:36.482Z,30.63
2022-08-26T10:58:26.708Z,30.75
2022-08-26T11:01:23.290Z,30.74
2022-08-26T11:04:01.274Z,30.85
2022-08-26T11:06:31.399Z,30.91
2022-08-26T11:09:00.962Z,30.97
2022-08-26T11:11:50.045Z,31.22
2022-08-26T11:14:44.657Z,31.15
2022-08-26T11:17:56.575Z,31.19
2022-08-26T11:20:41.538Z,31.27
2022-08-26T11:23:50.420Z,31.39
2022-08-26T11:26:35.598Z,31.41
2022-08-26T11:29:13.412Z,31.48
2022-08-26T11:31:57.341Z,31.51
2022-08-26T11:34:52.527Z,31.53
2022-08-26T11:37:27.372Z,31.70
2022-08-26T11:39:57.231Z,32.02
2022-08-26T11:42:36.157Z,32.25
2022-08-26T11:45:17.705Z,32.26
2022-08-26T11:47:49.457Z,32.18
2022-08-26T11:50:21.016Z,32.12
2022-08-26T11:53:01.766Z,32.20
2022-08-26T11:55:30.644Z,32.27
2022-08-26T11:58:01.828Z,32.40
2022-08-26T12:00:47.570Z,32.50
2022-08-26T12:03:20.815Z,32.49
2022-08-26T12:05:57.249Z,32.33
2022-08-26T12:08:31.084Z,32.20
2022-08-26T12:11:09.125Z,32.15
2022-08-26T12:13:39.102Z,32.11
2022-08-26T12:16:08.281Z,32.11
2022-08-26T12:18:39.777Z,32.11
2022-08-26T12:21:17.321Z,32.13
2022-08-26T12:23:50.108Z,32.12
2022-08-26T12:26:24.514Z,32.10
2022-08-26T12:28:59.088Z,32.13
2022-08-26T12:31:31.175Z,32.09
2022-08-26T12:34:01.400Z,32.09
2022-08-26T12:36:33.380Z,32.04
2022-08-26T12:39:09.520Z,32.02
2022-08-26T12:41:47.524Z,31.93
2022-08-26T12:44:39.269Z,31.87
2022-08-26T12:47:23.329Z,31.79
2022-08-26T12:50:07.054Z,31.74
2022-08-26T12:52:44.204Z,31.81
2022-08-26T12:55:23.680Z,31.88
2022-08-26T12:57:51.976Z,31.93
2022-08-26T13:00:32.837Z,31.80
2022-08-26T13:03:01.667Z,31.79
2022-08-26T13:05:34.092Z,31.80
2022-08-26T13:08:13.592Z,31.79
2022-08-26T13:10:45.253Z,31.76
2022-08-26T13:13:13.408Z,31.80
2022-08-26T13:15:44.229Z,31.83
2022-08-26T13:18:12.287Z,31.86
2022-08-26T13:20:43.979Z,31.85
2022-08-26T13:23:12.628Z,31.87
2022-08-26T13:25:40.913Z,31.93
2022-08-26T13:28:10.376Z,32.04
2022-08-26T13:30:38.421Z,32.06
2022-08-26T13:33:08.550Z,32.15
2022-08-26T13:35:40.099Z,32.25
2022-08-26T13:38:25.164Z,32.36
2022-08-26T13:41:04.701Z,32.50
2022-08-26T13:43:34.161Z,32.68
2022-08-26T13:46:02.554Z,32.74
2022-08-26T13:48:33.945Z,32.92
2022-08-26T13:51:02.361Z,33.17
2022-08-26T13:53:31.910Z,33.39
2022-08-26T13:56:01.830Z,33.42
2022-08-26T13:58:29.809Z,33.29
2022-08-26T14:01:02.041Z,33.26
2022-08-26T14:03:30.215Z,33.21
2022-08-26T14:05:58.232Z,33.10
2022-08-26T14:08:26.564Z,33.10
2022-08-26T14:10:56.847Z,32.96
2022-08-26T14:13:24.932Z,32.63
2022-08-26T14:15:56.485Z,32.43
2022-08-26T14:18:32.064Z,32.32
2022-08-26T14:21:00.555Z,32.16
2022-08-26T14:23:33.112Z,32.14
2022-08-26T14:26:03.500Z,32.10
2022-08-26T14:28:33.910Z,32.06
2022-08-26T14:31:02.046Z,32.00
2022-08-26T14:33:34.908Z,31.95
2022-08-26T14:36:17.034Z,31.97
2022-08-26T14:38:45.241Z,32.02
2022-08-26T14:41:14.880Z,32.02
2022-08-26T14:43:48.443Z,31.93
2022-08-26T14:46:17.786Z,31.88
2022-08-26T14:48:47.258Z,31.89
2022-08-26T14:51:15.285Z,31.81
2022-08-26T14:54:02.918Z,31.78
2022-08-26T14:56:34.948Z,31.69
2022-08-26T14:59:03.132Z,31.54
2022-08-26T15:01:32.036Z,31.44
2022-08-26T15:04:04.583Z,31.35
2022-08-26T15:06:33.029Z,31.17
2022-08-26T15:09:01.066Z,30.99
2022-08-26T15:11:29.290Z,30.86
2022-08-26T15:13:57.557Z,30.71
2022-08-26T15:16:25.700Z,30.57
2022-08-26T15:18:54.349Z,30.45
2022-08-26T15:21:24.132Z,30.33
2022-08-26T15:23:53.700Z,30.26
2022-08-26T15:26:23.500Z,30.15
2022-08-26T15:28:52.278Z,30.04
2022-08-26T15:31:30.790Z,29.92
2022-08-26T15:34:00.394Z,29.84
2022-08-26T15:36:31.481Z,29.78
2022-08-26T15:39:01.617Z,29.74
2022-08-26T15:41:30.313Z,29.69
2022-08-26T15:44:03.434Z,29.65
2022-08-26T15:46:32.448Z,29.59
2022-08-26T15:49:00.678Z,29.54
2022-08-26T15:51:32.719Z,29.48
2022-08-26T15:54:05.076Z,29.45
2022-08-26T15:56:38.406Z,29.42
2022-08-26T15:59:08.028Z,29.38
2022-08-26T16:01:36.760Z,29.32
2022-08-26T16:04:07.663Z,29.30
2022-08-26T16:06:39.850Z,29.24
2022-08-26T16:09:09.069Z,29.22
2022-08-26T16:11:37.619Z,29.17
2022-08-26T16:14:07.145Z,29.14
2022-08-26T16:16:37.421Z,29.12
2022-08-26T16:19:07.528Z,29.10
2022-08-26T16:21:37.235Z,29.06
2022-08-26T16:24:06.430Z,29.01
2022-08-26T16:26:37.535Z,28.97
2022-08-26T16:29:09.101Z,28.95
2022-08-26T16:31:38.287Z,28.93
2022-08-26T16:34:06.641Z,28.93
2022-08-26T16:36:35.387Z,28.94
2022-08-26T16:39:06.291Z,28.95
2022-08-26T16:41:35.596Z,28.92
2022-08-26T16:44:08.040Z,28.94
2022-08-26T16:46:36.376Z,28.96
2022-08-26T16:49:04.698Z,28.99
2022-08-26T16:51:38.137Z,29.02
2022-08-26T16:54:09.161Z,29.09
2022-08-26T16:56:38.045Z,29.17
2022-08-26T16:59:07.837Z,29.28
2022-08-26T17:01:36.039Z,29.38
2022-08-26T17:04:04.594Z,29.45
2022-08-26T17:06:35.021Z,29.44
2022-08-26T17:09:05.683Z,29.41
2022-08-26T17:11:35.751Z,29.36
2022-08-26T17:14:03.837Z,29.30
2022-08-26T17:16:32.220Z,29.23
2022-08-26T17:19:01.593Z,29.16
2022-08-26T17:21:30.044Z,29.08
2022-08-26T17:23:58.199Z,29.02
2022-08-26T17:26:29.020Z,28.96
2022-08-26T17:29:00.001Z,28.91
2022-08-26T17:31:28.085Z,28.84
2022-08-26T17:33:56.824Z,28.76
2022-08-26T17:36:27.456Z,28.67
2022-08-26T17:38:59.508Z,28.60
2022-08-26T17:41:27.972Z,28.49
2022-08-26T17:43:56.145Z,28.49
2022-08-26T17:46:25.539Z,28.32
2022-08-26T17:48:54.068Z,28.29
2022-08-26T17:51:24.668Z,28.29
2022-08-26T17:53:53.530Z,28.17
2022-08-26T17:56:24.924Z,28.10
2022-08-26T17:58:53.989Z,28.06
2022-08-26T18:01:26.081Z,27.97
2022-08-26T18:04:00.335Z,27.91
2022-08-26T18:06:30.482Z,27.92
2022-08-26T18:08:58.631Z,27.77
2022-08-26T18:11:27.078Z,27.67
2022-08-26T18:13:55.070Z,27.73
2022-08-26T18:16:23.302Z,27.62
2022-08-26T18:18:55.263Z,27.59
2022-08-26T18:21:25.086Z,27.45
2022-08-26T18:23:54.079Z,27.38
2022-08-26T18:26:24.355Z,27.35
2022-08-26T18:28:52.745Z,27.36
2022-08-26T18:31:21.016Z,27.29
2022-08-26T18:33:49.500Z,27.25
2022-08-26T18:36:23.127Z,27.24
2022-08-26T18:38:52.035Z,27.22
2022-08-26T18:41:21.874Z,27.18
2022-08-26T18:43:54.061Z,27.12
2022-08-26T18:46:25.157Z,27.06
2022-08-26T18:48:56.698Z,27.06
2022-08-26T18:51:30.566Z,27.04
2022-08-26T18:54:02.538Z,27.02
2022-08-26T18:56:31.050Z,27.04
2022-08-26T18:58:59.808Z,26.95
2022-08-26T19:01:29.359Z,26.94
2022-08-26T19:03:58.671Z,26.92
2022-08-26T19:06:32.770Z,26.81
2022-08-26T19:09:01.181Z,26.73
2022-08-26T19:11:37.300Z,26.70
2022-08-26T19:14:08.223Z,26.68
2022-08-26T19:16:37.671Z,26.67
2022-08-26T19:19:06.338Z,26.67
2022-08-26T19:21:37.424Z,26.65
2022-08-26T19:24:09.260Z,26.64
2022-08-26T19:26:39.897Z,26.63
2022-08-26T19:29:07.941Z,26.60
2022-08-26T19:31:36.458Z,26.58
2022-08-26T19:34:05.320Z,26.56
2022-08-26T19:36:35.389Z,26.52
2022-08-26T19:39:07.738Z,26.50
2022-08-26T19:41:38.751Z,26.46
2022-08-26T19:44:09.346Z,26.43
2022-08-26T19:49:07.292Z,26.38
2022-08-26T19:51:37.699Z,26.35
2022-08-26T19:54:06.033Z,26.34
2022-08-26T19:56:34.896Z,26.31
2022-08-26T19:59:02.947Z,26.27
2022-08-26T20:01:31.637Z,26.27
2022-08-26T20:04:04.801Z,26.23
2022-08-26T20:06:36.310Z,26.21
2022-08-26T20:09:04.460Z,26.19
2022-08-26T20:11:32.370Z,26.16
2022-08-26T20:14:02.824Z,26.18
2022-08-26T20:16:31.084Z,26.13
2022-08-26T20:19:18.879Z,26.07
2022-08-26T20:21:48.710Z,26.05
2022-08-26T20:24:20.848Z,26.03
2022-08-26T20:26:49.712Z,26.01
2022-08-26T20:29:19.544Z,25.98
2022-08-26T20:31:49.062Z,25.95
2022-08-26T20:34:19.407Z,25.94
2022-08-26T20:36:50.879Z,25.91
2022-08-26T20:39:20.841Z,25.88
2022-08-26T20:41:49.173Z,25.85
2022-08-26T20:44:17.642Z,25.81
2022-08-26T20:46:45.806Z,25.77
2022-08-26T20:49:14.716Z,25.72
2022-08-26T20:51:43.305Z,25.73
2022-08-26T20:54:13.263Z,25.72
2022-08-26T20:56:41.410Z,25.69
2022-08-26T20:59:09.531Z,25.65
2022-08-26T21:01:41.937Z,25.56
2022-08-26T21:04:14.830Z,25.51
2022-08-26T21:06:46.616Z,25.48
2022-08-26T21:09:27.221Z,25.46
2022-08-26T21:11:56.651Z,25.46
2022-08-26T21:14:25.900Z,25.47
2022-08-26T21:16:54.372Z,25.47
2022-08-26T21:19:22.512Z,25.44
2022-08-26T21:21:50.489Z,25.41
2022-08-26T21:24:19.015Z,25.41
2022-08-26T21:26:49.089Z,25.43
2022-08-26T21:29:21.947Z,25.42
2022-08-26T21:31:50.464Z,25.36
2022-08-26T21:34:19.888Z,25.33
2022-08-26T21:36:48.739Z,25.30
2022-08-26T21:39:19.487Z,25.27
2022-08-26T21:41:49.063Z,25.26
2022-08-26T21:44:18.696Z,25.22
2022-08-26T21:46:49.805Z,25.18
2022-08-26T21:49:20.277Z,25.15
2022-08-26T21:51:49.659Z,25.14
2022-08-26T21:54:19.906Z,25.11
2022-08-26T21:56:50.071Z,25.08
2022-08-26T21:59:19.700Z,25.06
2022-08-26T22:01:50.533Z,25.02
2022-08-26T22:04:19.659Z,24.99
2022-08-26T22:06:55.585Z,24.95
2022-08-26T22:09:30.854Z,24.92
2022-08-26T22:12:00.525Z,24.97
2022-08-26T22:14:30.916Z,24.91
2022-08-26T22:17:00.079Z,24.90
2022-08-26T22:19:28.141Z,24.89
2022-08-26T22:21:56.807Z,24.89
2022-08-26T22:24:27.032Z,24.91
2022-08-26T22:26:55.798Z,24.98
2022-08-26T22:29:25.553Z,24.96
2022-08-26T22:31:54.151Z,24.93
2022-08-26T22:34:23.159Z,24.97
2022-08-26T22:36:51.820Z,24.91
2022-08-26T22:39:22.332Z,24.90
2022-08-26T22:41:51.043Z,24.90
2022-08-26T22:44:22.490Z,24.85
2022-08-26T22:46:54.657Z,24.86
2022-08-26T22:49:22.703Z,24.84
2022-08-26T22:51:51.548Z,24.83
2022-08-26T22:54:19.612Z,24.76
2022-08-26T22:56:47.528Z,24.73
2022-08-26T22:59:16.203Z,24.70
2022-08-26T23:01:46.710Z,24.66
2022-08-26T23:04:16.130Z,24.66
2022-08-26T23:06:47.485Z,24.63
2022-08-26T23:09:17.843Z,24.62
2022-08-26T23:11:47.353Z,24.63
2022-08-26T23:14:15.443Z,24.64
2022-08-26T23:16:43.620Z,24.63
2022-08-26T23:19:17.000Z,24.66
2022-08-26T23:21:45.049Z,24.64
2022-08-26T23:24:13.843Z,24.59
2022-08-26T23:26:43.169Z,24.58
2022-08-26T23:29:12.580Z,24.57
2022-08-26T23:31:42.437Z,24.59
2022-08-26T23:34:29.355Z,24.58
2022-08-26T23:37:00.049Z,24.53
2022-08-26T23:39:29.305Z,24.51
2022-08-26T23:41:58.020Z,24.50
2022-08-26T23:44:26.729Z,24.55
2022-08-26T23:46:55.225Z,24.52
2022-08-26T23:49:23.346Z,24.57
2022-08-26T23:52:08.979Z,24.47
2022-08-26T23:54:38.816Z,24.39
2022-08-26T23:57:07.501Z,24.47
2022-08-26T23:59:35.510Z,24.54
